Time;durP1;ratioP1;P1;durP2;ratioP2;P2;SDS_P1;SDS_P2;PMS_P1;PMS_P2;Temp;Humidity;BMP_temperature;BMP_pressure;BME280_temperature;BME280_humidity;BME280_pressure;Samples;Min_cycle;Max_cycle;Signal;HPM_P1;HPM_P2
2021/07/27 00:00:53;;;;;;;;;;;22.00;79.70;;;;;;5055483;28;1614;-67
2021/07/27 00:03:19;;;;;;;;;;;22.00;79.70;;;;;;5055419;28;1677;-67
2021/07/27 00:05:44;;;;;;;;;;;22.00;80.00;;;;;;5055165;28;1356;-67
2021/07/27 00:08:09;;;;;;;;;;;22.00;79.70;;;;;;5054052;28;1961;-67
2021/07/27 00:10:38;;;;;;;;;;;22.00;79.70;;;;;;5053423;28;1687;-67
2021/07/27 00:13:04;;;;;;;;;;;22.00;79.70;;;;;;5054138;28;1263;-67
2021/07/27 00:15:29;;;;;;;;;;;22.00;79.70;;;;;;5053820;28;1695;-68
2021/07/27 00:17:55;;;;;;;;;;;22.00;79.70;;;;;;5054037;28;1427;-67
2021/07/27 00:20:20;;;;;;;;;;;22.00;79.70;;;;;;5055209;28;1163;-67
2021/07/27 00:22:46;;;;;;;;;;;22.00;79.70;;;;;;5053690;28;1436;-67
2021/07/27 00:25:14;;;;;;;;;;;22.00;79.70;;;;;;5052881;28;1208;-68
2021/07/27 00:27:40;;;;;;;;;;;22.00;79.70;;;;;;5054623;28;1882;-68
2021/07/27 00:30:09;;;;;;;;;;;22.00;79.70;;;;;;5053380;28;1669;-68
2021/07/27 00:32:35;;;;;;;;;;;22.00;79.70;;;;;;5054507;28;1515;-68
2021/07/27 00:35:00;;;;;;;;;;;22.00;79.70;;;;;;5054329;28;1624;-66
2021/07/27 00:37:29;;;;;;;;;;;22.00;79.70;;;;;;5054501;28;1503;-67
2021/07/27 00:39:54;;;;;;;;;;;22.00;79.70;;;;;;5054197;28;1654;-68
2021/07/27 00:42:20;;;;;;;;;;;22.00;79.60;;;;;;5054287;28;1401;-67
2021/07/27 00:44:45;;;;;;;;;;;22.00;79.60;;;;;;5052744;28;1478;-67
2021/07/27 00:47:11;;;;;;;;;;;22.00;79.70;;;;;;5054255;28;1953;-67
2021/07/27 00:49:36;;;;;;;;;;;22.00;79.70;;;;;;5053036;28;1670;-67
2021/07/27 00:52:02;;;;;;;;;;;22.00;79.60;;;;;;5052923;28;1373;-67
2021/07/27 00:54:27;;;;;;;;;;;22.00;79.70;;;;;;5053707;28;1669;-67
2021/07/27 00:56:53;;;;;;;;;;;22.00;79.70;;;;;;5052795;28;1683;-68
2021/07/27 00:59:18;;;;;;;;;;;22.00;79.70;;;;;;5052945;28;1714;-67
2021/07/27 01:01:44;;;;;;;;;;;22.00;79.70;;;;;;5053040;28;1648;-67
2021/07/27 01:04:09;;;;;;;;;;;22.00;79.70;;;;;;5054010;28;1687;-67
2021/07/27 01:06:34;;;;;;;;;;;22.00;79.70;;;;;;5054414;28;1852;-67
2021/07/27 01:09:00;;;;;;;;;;;22.00;79.70;;;;;;5054101;28;1910;-67
2021/07/27 01:11:26;;;;;;;;;;;22.00;79.70;;;;;;5052963;28;1550;-68
2021/07/27 01:13:51;;;;;;;;;;;22.10;79.70;;;;;;5053962;28;1413;-68
2021/07/27 01:16:18;;;;;;;;;;;22.00;79.60;;;;;;5036244;28;1445;-68
2021/07/27 01:18:57;;;;;;;;;;;22.00;79.70;;;;;;5054082;28;1197;-68
2021/07/27 01:37:53;;;;;;;;;;;22.00;79.60;;;;;;5047751;28;1164;-68
2021/07/27 01:40:19;;;;;;;;;;;22.00;79.70;;;;;;5039871;28;1080;-67
2021/07/27 01:42:45;;;;;;;;;;;22.00;79.60;;;;;;5045961;28;1381;-68
2021/07/27 01:45:10;;;;;;;;;;;22.10;79.70;;;;;;5043803;28;1299;-67
2021/07/27 01:47:35;;;;;;;;;;;22.00;79.60;;;;;;5047281;28;1967;-67
2021/07/27 01:50:01;;;;;;;;;;;22.00;79.60;;;;;;5053317;28;1126;-69
2021/07/27 01:52:26;;;;;;;;;;;22.00;79.60;;;;;;5053196;28;1394;-68
2021/07/27 01:54:54;;;;;;;;;;;22.00;79.60;;;;;;5052740;28;1147;-67
2021/07/27 01:57:20;;;;;;;;;;;22.00;79.60;;;;;;5053373;28;1171;-68
2021/07/27 01:59:57;;;;;;;;;;;22.00;79.70;;;;;;5052011;28;1084;-67
2021/07/27 02:02:23;;;;;;;;;;;22.00;79.60;;;;;;5053135;28;1258;-67
2021/07/27 02:04:48;;;;;;;;;;;22.00;79.60;;;;;;5051494;28;976;-68
2021/07/27 02:07:14;;;;;;;;;;;22.00;79.60;;;;;;5051716;28;1957;-67
2021/07/27 02:09:42;;;;;;;;;;;22.00;79.60;;;;;;5052957;28;1036;-67
2021/07/27 02:12:16;;;;;;;;;;;22.00;79.60;;;;;;5052905;28;1296;-67
2021/07/27 02:17:25;;;;;;;;;;;22.00;79.60;;;;;;5052979;28;1072;-67
2021/07/27 02:19:51;;;;;;;;;;;22.00;79.60;;;;;;5052647;28;1060;-67
2021/07/27 02:22:17;;;;;;;;;;;22.00;79.60;;;;;;5052799;28;1361;-67
2021/07/27 02:24:45;;;;;;;;;;;22.00;79.60;;;;;;5052688;28;1305;-67
2021/07/27 02:27:11;;;;;;;;;;;22.00;79.60;;;;;;5052684;28;1898;-67
2021/07/27 02:29:36;;;;;;;;;;;22.00;79.60;;;;;;5052731;28;1206;-68
2021/07/27 02:32:02;;;;;;;;;;;22.00;79.60;;;;;;5052699;28;1325;-67
2021/07/27 02:34:31;;;;;;;;;;;22.00;79.60;;;;;;5052354;28;1127;-67
2021/07/27 02:36:57;;;;;;;;;;;22.00;79.60;;;;;;5052891;28;1060;-68
2021/07/27 02:39:22;;;;;;;;;;;22.00;79.60;;;;;;5051378;28;1139;-68
2021/07/27 02:41:48;;;;;;;;;;;22.00;79.60;;;;;;5052834;28;1210;-68
2021/07/27 02:44:13;;;;;;;;;;;22.00;79.60;;;;;;5052209;28;1056;-68
2021/07/27 02:46:38;;;;;;;;;;;22.00;79.60;;;;;;5052776;28;1083;-68
2021/07/27 02:49:04;;;;;;;;;;;22.00;79.60;;;;;;5052507;28;1898;-68
2021/07/27 02:51:29;;;;;;;;;;;22.00;79.60;;;;;;5052701;28;1072;-68
2021/07/27 02:53:55;;;;;;;;;;;22.00;79.60;;;;;;5051195;28;1315;-68
2021/07/27 02:56:20;;;;;;;;;;;22.00;79.60;;;;;;5052290;28;1039;-68
2021/07/27 02:58:46;;;;;;;;;;;22.00;79.60;;;;;;5052622;28;1178;-67
2021/07/27 03:01:11;;;;;;;;;;;22.00;79.60;;;;;;5052488;28;1088;-68
2021/07/27 03:03:36;;;;;;;;;;;22.00;79.60;;;;;;5052144;28;1265;-68
2021/07/27 03:06:02;;;;;;;;;;;22.00;79.60;;;;;;5052200;28;1099;-67
2021/07/27 03:11:13;;;;;;;;;;;22.10;79.60;;;;;;5051515;28;1131;-68
2021/07/27 03:13:38;;;;;;;;;;;22.00;79.60;;;;;;5051115;28;1223;-68
2021/07/27 03:16:03;;;;;;;;;;;22.00;79.60;;;;;;5050636;28;1135;-68
2021/07/27 03:18:29;;;;;;;;;;;22.00;79.60;;;;;;5052686;28;1120;-68
2021/07/27 03:20:54;;;;;;;;;;;22.00;79.60;;;;;;5052323;28;1059;-68
2021/07/27 03:23:29;;;;;;;;;;;22.00;79.60;;;;;;5052149;28;1194;-68
2021/07/27 03:25:54;;;;;;;;;;;22.00;79.60;;;;;;5052093;28;1040;-68
2021/07/27 03:28:19;;;;;;;;;;;22.00;79.60;;;;;;5052186;28;1906;-67
2021/07/27 03:30:45;;;;;;;;;;;22.00;79.60;;;;;;5051996;28;1079;-67
2021/07/27 03:33:12;;;;;;;;;;;22.00;79.60;;;;;;5052330;28;1209;-67
2021/07/27 03:35:38;;;;;;;;;;;22.00;79.60;;;;;;5051856;28;1048;-67
2021/07/27 03:38:04;;;;;;;;;;;22.00;79.60;;;;;;5052274;28;1004;-67
2021/07/27 03:40:30;;;;;;;;;;;22.00;79.60;;;;;;5050849;28;1149;-67
2021/07/27 03:42:55;;;;;;;;;;;22.00;79.60;;;;;;5050807;28;1323;-67
2021/07/27 03:45:21;;;;;;;;;;;22.00;79.60;;;;;;5052870;28;1293;-67
2021/07/27 03:47:46;;;;;;;;;;;22.00;79.60;;;;;;5055781;28;1894;-68
2021/07/27 03:50:12;;;;;;;;;;;22.00;79.60;;;;;;5055523;28;1095;-68
2021/07/27 03:52:37;;;;;;;;;;;22.00;79.60;;;;;;5055592;28;1362;-68
2021/07/27 03:55:03;;;;;;;;;;;22.00;79.60;;;;;;5055087;28;1067;-68
2021/07/27 03:57:28;;;;;;;;;;;22.00;79.60;;;;;;5055552;28;1123;-68
2021/07/27 03:59:54;;;;;;;;;;;22.00;79.60;;;;;;5054017;28;1127;-68
2021/07/27 04:02:19;;;;;;;;;;;22.00;79.60;;;;;;5054061;28;1345;-67
2021/07/27 04:04:47;;;;;;;;;;;22.00;79.60;;;;;;5053827;28;1162;-68
2021/07/27 04:07:15;;;;;;;;;;;22.00;79.60;;;;;;5055369;28;1965;-67
2021/07/27 04:09:40;;;;;;;;;;;22.00;79.60;;;;;;5055202;28;1115;-68
2021/07/27 04:12:05;;;;;;;;;;;22.00;79.60;;;;;;5055688;28;1295;-68
2021/07/27 04:14:33;;;;;;;;;;;22.00;79.60;;;;;;5054804;28;1080;-68
2021/07/27 04:16:59;;;;;;;;;;;22.00;79.60;;;;;;5054716;28;1093;-67
2021/07/27 04:19:24;;;;;;;;;;;22.00;79.60;;;;;;5054622;28;1060;-68
2021/07/27 04:21:49;;;;;;;;;;;22.00;79.60;;;;;;5054213;28;1282;-67
2021/07/27 04:24:17;;;;;;;;;;;22.10;79.60;;;;;;5053863;28;1012;-67
2021/07/27 04:26:42;;;;;;;;;;;22.00;79.50;;;;;;5054537;28;1167;-68
2021/07/27 04:29:08;;;;;;;;;;;22.00;79.60;;;;;;5053987;28;1953;-68
2021/07/27 04:31:33;;;;;;;;;;;22.00;79.50;;;;;;5054932;28;1122;-68
2021/07/27 04:33:58;;;;;;;;;;;22.00;79.50;;;;;;5054780;28;1177;-67
2021/07/27 04:36:24;;;;;;;;;;;22.00;79.50;;;;;;5054778;28;1071;-68
2021/07/27 04:38:49;;;;;;;;;;;22.00;79.50;;;;;;5053508;28;1087;-68
2021/07/27 04:41:15;;;;;;;;;;;22.00;79.50;;;;;;5054747;28;1165;-68
2021/07/27 04:43:40;;;;;;;;;;;22.00;79.60;;;;;;5054426;28;1208;-68
2021/07/27 04:46:06;;;;;;;;;;;22.00;79.50;;;;;;5054312;28;1064;-68
2021/07/27 04:48:31;;;;;;;;;;;22.00;79.50;;;;;;5054568;28;1914;-68
2021/07/27 04:51:00;;;;;;;;;;;22.00;79.60;;;;;;5054521;28;1111;-68
2021/07/27 04:53:26;;;;;;;;;;;22.00;79.50;;;;;;5054334;28;1291;-68
2021/07/27 04:55:57;;;;;;;;;;;22.00;79.60;;;;;;5053845;28;1118;-68
2021/07/27 04:58:23;;;;;;;;;;;22.00;79.60;;;;;;5053676;28;1088;-67
2021/07/27 05:00:48;;;;;;;;;;;22.00;79.60;;;;;;5054365;28;1056;-67
2021/07/27 05:03:13;;;;;;;;;;;22.00;79.60;;;;;;5078809;22;3703;-71
2021/07/27 05:05:39;;;;;;;;;;;22.00;80.30;;;;;;5065440;28;1600;-71
2021/07/27 05:08:04;;;;;;;;;;;22.00;79.60;;;;;;5068656;28;1973;-71
2021/07/27 05:10:30;;;;;;;;;;;22.00;79.60;;;;;;5072478;28;1387;-71
2021/07/27 05:12:55;;;;;;;;;;;22.00;79.60;;;;;;5073042;28;1309;-71
2021/07/27 05:15:21;;;;;;;;;;;22.00;79.60;;;;;;5071326;28;1155;-71
2021/07/27 05:17:47;;;;;;;;;;;22.00;79.60;;;;;;5073743;28;1396;-71
2021/07/27 05:20:13;;;;;;;;;;;22.00;79.60;;;;;;5072180;28;1632;-70
2021/07/27 05:22:38;;;;;;;;;;;22.00;79.50;;;;;;5053581;28;1384;-71
2021/07/27 05:25:04;;;;;;;;;;;22.00;79.60;;;;;;5052859;28;1709;-70
2021/07/27 05:27:31;;;;;;;;;;;22.00;79.60;;;;;;5051985;28;1902;-71
2021/07/27 05:29:57;;;;;;;;;;;22.00;79.50;;;;;;5052081;28;1402;-71
2021/07/27 05:32:22;;;;;;;;;;;22.00;79.50;;;;;;5053620;28;1443;-71
2021/07/27 05:34:48;;;;;;;;;;;22.00;79.50;;;;;;5052431;28;1314;-71
2021/07/27 05:37:13;;;;;;;;;;;22.00;79.50;;;;;;5052422;28;1526;-71
2021/07/27 05:39:39;;;;;;;;;;;22.00;79.50;;;;;;5051748;28;1202;-71
2021/07/27 05:42:04;;;;;;;;;;;22.00;79.50;;;;;;5053282;28;1390;-70
2021/07/27 05:44:30;;;;;;;;;;;22.10;79.50;;;;;;5051046;28;1537;-70
2021/07/27 05:46:55;;;;;;;;;;;22.00;79.50;;;;;;5053312;28;1906;-71
2021/07/27 05:49:21;;;;;;;;;;;22.00;79.40;;;;;;5034866;28;1699;-72
2021/07/27 05:51:49;;;;;;;;;;;22.00;79.40;;;;;;5050881;28;1473;-71
2021/07/27 05:54:15;;;;;;;;;;;22.00;79.40;;;;;;5039981;28;1369;-72
2021/07/27 05:56:40;;;;;;;;;;;22.00;79.40;;;;;;5035105;28;1250;-71
2021/07/27 05:59:06;;;;;;;;;;;22.00;79.30;;;;;;5053436;28;1655;-72
2021/07/27 06:01:31;;;;;;;;;;;22.00;79.30;;;;;;5052431;28;1372;-71
2021/07/27 06:03:56;;;;;;;;;;;22.00;79.30;;;;;;5052439;28;1690;-72
2021/07/27 06:06:22;;;;;;;;;;;22.00;79.40;;;;;;5066427;28;1328;-70
2021/07/27 06:08:47;;;;;;;;;;;22.00;79.40;;;;;;5072406;28;2194;-71
2021/07/27 06:11:13;;;;;;;;;;;22.00;79.30;;;;;;5072467;28;1642;-70
2021/07/27 06:13:39;;;;;;;;;;;22.00;79.30;;;;;;5072943;28;1779;-70
2021/07/27 06:16:04;;;;;;;;;;;22.00;79.30;;;;;;5070718;28;1385;-70
2021/07/27 06:18:30;;;;;;;;;;;22.00;79.30;;;;;;5071440;28;1197;-70
2021/07/27 06:20:56;;;;;;;;;;;22.00;79.30;;;;;;5065628;28;1629;-70
2021/07/27 06:23:21;;;;;;;;;;;22.00;79.30;;;;;;5052705;28;1733;-70
2021/07/27 06:25:47;;;;;;;;;;;22.00;79.30;;;;;;5052558;28;1384;-70
2021/07/27 06:28:12;;;;;;;;;;;22.00;79.30;;;;;;5052816;28;1902;-70
2021/07/27 06:30:38;;;;;;;;;;;22.00;79.20;;;;;;5052259;28;1529;-71
2021/07/27 06:33:03;;;;;;;;;;;22.00;79.20;;;;;;5052440;28;1269;-69
2021/07/27 06:35:28;;;;;;;;;;;22.00;79.20;;;;;;5051965;28;1189;-70
2021/07/27 06:37:54;;;;;;;;;;;22.00;79.20;;;;;;5052337;28;1411;-70
2021/07/27 06:40:20;;;;;;;;;;;22.00;79.30;;;;;;5052139;28;1353;-71
2021/07/27 06:42:45;;;;;;;;;;;22.00;79.30;;;;;;5052584;28;1286;-71
2021/07/27 06:45:11;;;;;;;;;;;22.00;79.20;;;;;;5051217;28;1655;-71
2021/07/27 06:47:37;;;;;;;;;;;22.00;79.30;;;;;;5051021;28;1906;-71
2021/07/27 06:50:02;;;;;;;;;;;22.00;79.30;;;;;;5052304;28;1697;-71
2021/07/27 06:52:28;;;;;;;;;;;22.00;79.30;;;;;;5057785;28;1442;-70
2021/07/27 06:54:53;;;;;;;;;;;22.00;79.30;;;;;;5070361;28;1385;-70
2021/07/27 06:57:18;;;;;;;;;;;22.00;79.30;;;;;;5072145;28;1410;-71
2021/07/27 06:59:44;;;;;;;;;;;22.00;79.30;;;;;;5072149;28;1420;-69
2021/07/27 07:02:09;;;;;;;;;;;22.00;79.30;;;;;;5066937;28;1399;-69
2021/07/27 07:04:35;;;;;;;;;;;22.00;79.30;;;;;;5063304;28;1407;-68
2021/07/27 07:07:00;;;;;;;;;;;22.00;79.30;;;;;;5071058;28;1921;-70
2021/07/27 07:09:26;;;;;;;;;;;22.00;79.30;;;;;;5070967;28;1706;-68
2021/07/27 07:11:51;;;;;;;;;;;22.00;79.30;;;;;;5072171;28;1398;-69
2021/07/27 07:14:18;;;;;;;;;;;22.00;79.30;;;;;;5087038;28;1384;-71
2021/07/27 07:16:43;;;;;;;;;;;22.00;79.30;;;;;;5071641;28;1157;-71
2021/07/27 07:19:08;;;;;;;;;;;22.00;79.30;;;;;;5072175;28;1668;-69
2021/07/27 07:21:34;;;;;;;;;;;22.00;79.30;;;;;;5061416;28;1181;-69
2021/07/27 07:23:59;;;;;;;;;;;22.00;79.40;;;;;;5054066;28;1436;-72
2021/07/27 07:26:25;;;;;;;;;;;22.00;79.40;;;;;;5054342;28;1705;-69
2021/07/27 07:28:50;;;;;;;;;;;22.00;79.40;;;;;;5054787;28;1973;-69
2021/07/27 07:31:18;;;;;;;;;;;22.00;79.40;;;;;;5056006;28;1453;-69
2021/07/27 07:33:44;;;;;;;;;;;22.00;79.40;;;;;;5055561;28;1397;-70
2021/07/27 07:36:13;;;;;;;;;;;22.00;79.40;;;;;;5054661;28;1616;-71
2021/07/27 07:38:38;;;;;;;;;;;22.00;79.40;;;;;;5054298;28;1460;-71
2021/07/27 07:41:07;;;;;;;;;;;22.00;79.40;;;;;;5055587;28;1501;-71
2021/07/27 07:43:33;;;;;;;;;;;22.00;79.40;;;;;;5055407;28;1395;-71
2021/07/27 07:45:58;;;;;;;;;;;22.00;79.40;;;;;;5053505;28;1764;-71
2021/07/27 07:48:23;;;;;;;;;;;22.00;79.40;;;;;;5055065;28;1973;-71
2021/07/27 07:50:51;;;;;;;;;;;22.00;79.40;;;;;;5055372;28;1678;-70
2021/07/27 07:53:17;;;;;;;;;;;22.00;79.40;;;;;;5067612;28;1470;-71
2021/07/27 07:55:42;;;;;;;;;;;22.00;79.40;;;;;;5073744;28;1715;-72
2021/07/27 07:58:08;;;;;;;;;;;22.00;79.40;;;;;;5074924;28;1669;-69
2021/07/27 08:00:33;;;;;;;;;;;22.00;79.40;;;;;;5074991;28;1430;-70
2021/07/27 08:03:00;;;;;;;;;;;22.00;79.40;;;;;;5074064;28;1709;-71
2021/07/27 08:05:26;;;;;;;;;;;22.00;79.40;;;;;;5073021;28;1708;-70
2021/07/27 08:07:51;;;;;;;;;;;22.00;79.40;;;;;;5090377;28;1914;-70
2021/07/27 08:10:17;;;;;;;;;;;22.00;79.40;;;;;;5075016;28;1705;-70
2021/07/27 08:12:44;;;;;;;;;;;22.00;79.40;;;;;;5073850;28;1631;-70
2021/07/27 08:15:09;;;;;;;;;;;22.00;79.40;;;;;;5072889;28;1209;-70
2021/07/27 08:17:35;;;;;;;;;;;22.00;79.40;;;;;;5090810;28;1678;-70
2021/07/27 08:20:01;;;;;;;;;;;22.00;79.40;;;;;;5074511;28;1541;-70
2021/07/27 08:22:27;;;;;;;;;;;22.00;79.40;;;;;;5054388;28;1467;-70
2021/07/27 08:24:53;;;;;;;;;;;22.00;79.40;;;;;;5052884;28;1724;-71
2021/07/27 08:27:18;;;;;;;;;;;22.00;79.40;;;;;;5053576;28;1902;-71
2021/07/27 08:29:44;;;;;;;;;;;22.00;79.40;;;;;;5054627;28;1713;-71
2021/07/27 08:32:10;;;;;;;;;;;22.00;79.40;;;;;;5054017;28;1412;-71
2021/07/27 08:34:38;;;;;;;;;;;22.00;79.40;;;;;;5052291;28;1516;-71
2021/07/27 08:37:04;;;;;;;;;;;22.00;79.40;;;;;;5053781;28;1693;-70
2021/07/27 08:39:30;;;;;;;;;;;22.00;79.40;;;;;;5053178;28;1584;-71
2021/07/27 08:41:55;;;;;;;;;;;22.00;79.40;;;;;;5054480;28;1193;-71
2021/07/27 08:44:21;;;;;;;;;;;22.00;79.30;;;;;;5053746;28;1421;-71
2021/07/27 08:46:46;;;;;;;;;;;22.00;79.30;;;;;;5052845;28;1381;-70
2021/07/27 08:49:15;;;;;;;;;;;22.00;79.30;;;;;;5054172;28;2282;-70
2021/07/27 08:51:41;;;;;;;;;;;22.00;79.30;;;;;;5054317;28;1353;-70
2021/07/27 08:54:07;;;;;;;;;;;22.00;80.10;;;;;;5071903;28;2164;-70
2021/07/27 08:56:32;;;;;;;;;;;22.00;79.30;;;;;;5072596;28;1660;-70
2021/07/27 08:58:57;;;;;;;;;;;22.00;79.30;;;;;;5073920;28;1240;-69
2021/07/27 09:01:23;;;;;;;;;;;22.00;79.30;;;;;;5074143;28;1405;-71
2021/07/27 09:03:49;;;;;;;;;;;22.00;79.30;;;;;;5072533;28;1426;-71
2021/07/27 09:06:15;;;;;;;;;;;22.00;79.30;;;;;;5073346;28;1625;-69
2021/07/27 09:08:40;;;;;;;;;;;22.00;79.30;;;;;;5072584;28;1966;-69
2021/07/27 09:11:09;;;;;;;;;;;22.00;79.40;;;;;;5059704;28;1447;-71
2021/07/27 09:13:35;;;;;;;;;;;22.00;79.40;;;;;;5052423;28;1401;-70
2021/07/27 09:16:00;;;;;;;;;;;22.00;79.40;;;;;;5052107;28;1599;-70
2021/07/27 09:18:26;;;;;;;;;;;22.00;79.40;;;;;;5053570;28;1836;-71
2021/07/27 09:20:53;;;;;;;;;;;22.00;79.30;;;;;;5045555;28;1503;-70
2021/07/27 09:23:19;;;;;;;;;;;22.10;79.40;;;;;;5055587;28;1341;-71
2021/07/27 09:25:51;;;;;;;;;;;22.00;79.30;;;;;;5052522;28;1424;-71
2021/07/27 09:28:16;;;;;;;;;;;22.00;79.40;;;;;;5052459;28;1965;-71
2021/07/27 09:30:42;;;;;;;;;;;22.00;79.30;;;;;;5052765;28;1446;-71
2021/07/27 09:33:08;;;;;;;;;;;22.00;79.40;;;;;;5052954;28;1751;-71
2021/07/27 09:35:34;;;;;;;;;;;22.00;79.40;;;;;;5035379;28;1514;-71
2021/07/27 09:38:15;;;;;;;;;;;22.10;79.40;;;;;;5052333;28;1063;-72
2021/07/27 09:40:48;;;;;;;;;;;22.00;79.40;;;;;;5052114;28;1384;-70
2021/07/27 09:43:17;;;;;;;;;;;22.10;79.40;;;;;;5052524;28;1391;-72
2021/07/27 09:45:47;;;;;;;;;;;22.00;79.40;;;;;;5051073;28;1556;-71
2021/07/27 09:48:13;;;;;;;;;;;22.00;79.40;;;;;;5051925;28;1910;-71
2021/07/27 09:50:38;;;;;;;;;;;22.00;79.40;;;;;;5052420;28;1746;-71
2021/07/27 09:53:04;;;;;;;;;;;22.10;79.40;;;;;;5063422;28;1209;-71
2021/07/27 09:55:29;;;;;;;;;;;22.10;79.40;;;;;;5070944;28;1405;-69
2021/07/27 09:57:55;;;;;;;;;;;22.10;79.40;;;;;;5071887;28;1384;-70
2021/07/27 10:00:23;;;;;;;;;;;22.10;79.40;;;;;;5071216;28;1400;-70
2021/07/27 10:02:51;;;;;;;;;;;22.00;79.30;;;;;;5072590;28;1679;-70
2021/07/27 10:05:21;;;;;;;;;;;22.00;79.30;;;;;;5070966;28;1754;-70
2021/07/27 10:07:56;;;;;;;;;;;22.00;79.30;;;;;;5071541;28;1975;-71
2021/07/27 10:10:37;;;;;;;;;;;22.10;79.40;;;;;;5071730;28;1672;-69
2021/07/27 10:13:03;;;;;;;;;;;22.10;79.40;;;;;;5071442;28;1713;-70
2021/07/27 10:15:33;;;;;;;;;;;22.10;79.40;;;;;;5071824;28;1642;-70
2021/07/27 10:17:58;;;;;;;;;;;22.00;79.30;;;;;;5071359;28;1490;-70
2021/07/27 10:20:27;;;;;;;;;;;22.10;79.40;;;;;;5069853;28;1214;-71
2021/07/27 10:22:52;;;;;;;;;;;22.00;79.30;;;;;;5067996;28;1298;-70
2021/07/27 10:25:18;;;;;;;;;;;22.00;79.30;;;;;;5050235;28;1366;-71
2021/07/27 10:27:50;;;;;;;;;;;22.10;79.40;;;;;;5049788;28;1949;-71
2021/07/27 10:30:16;;;;;;;;;;;22.10;79.40;;;;;;5052798;28;1154;-70
2021/07/27 10:32:54;;;;;;;;;;;22.00;79.30;;;;;;5051421;28;1674;-71
2021/07/27 10:35:32;;;;;;;;;;;22.00;79.30;;;;;;5050305;28;1604;-71
2021/07/27 10:38:10;;;;;;;;;;;22.00;79.30;;;;;;5051303;28;1683;-70
2021/07/27 10:40:36;;;;;;;;;;;22.00;79.30;;;;;;5051240;28;1454;-71
2021/07/27 10:43:03;;;;;;;;;;;22.10;79.40;;;;;;5051599;28;1714;-70
2021/07/27 10:45:29;;;;;;;;;;;22.00;79.30;;;;;;5052521;28;1656;-71
2021/07/27 10:47:54;;;;;;;;;;;22.00;79.30;;;;;;5051319;28;1898;-70
2021/07/27 10:50:26;;;;;;;;;;;22.00;79.30;;;;;;5034608;28;1417;-69
2021/07/27 10:53:06;;;;;;;;;;;22.00;79.30;;;;;;5050695;28;1316;-70
2021/07/27 10:55:32;;;;;;;;;;;22.00;79.30;;;;;;5069768;28;1252;-70
2021/07/27 10:57:57;;;;;;;;;;;22.00;79.30;;;;;;5075391;28;1671;-70
2021/07/27 11:00:33;;;;;;;;;;;22.00;79.30;;;;;;5075198;28;1551;-70
2021/07/27 11:05:24;;;;;;;;;;;22.00;79.30;;;;;;5073459;22;2593;-68
2021/07/27 11:07:51;;;;;;;;;;;22.00;79.30;;;;;;5054840;28;1906;-67
2021/07/27 11:10:18;;;;;;;;;;;22.10;79.40;;;;;;5056104;28;1413;-67
2021/07/27 11:12:44;;;;;;;;;;;22.00;79.30;;;;;;5056424;28;1156;-68
2021/07/27 11:15:18;;;;;;;;;;;22.10;79.40;;;;;;5054908;28;1706;-68
2021/07/27 11:17:44;;;;;;;;;;;22.10;79.40;;;;;;5056237;28;1367;-68
2021/07/27 11:20:09;;;;;;;;;;;22.00;79.30;;;;;;5055432;28;1635;-69
2021/07/27 11:22:35;;;;;;;;;;;22.10;79.40;;;;;;5042398;28;1658;-68
2021/07/27 11:25:00;;;;;;;;;;;22.10;79.40;;;;;;5034101;28;1391;-68
2021/07/27 11:27:29;;;;;;;;;;;22.10;79.40;;;;;;5035457;28;1894;-68
2021/07/27 11:29:55;;;;;;;;;;;22.10;79.40;;;;;;5049292;28;1445;-68
2021/07/27 11:32:24;;;;;;;;;;;22.10;79.40;;;;;;5051818;28;1262;-67
2021/07/27 11:34:54;;;;;;;;;;;22.10;79.40;;;;;;5046715;28;1285;-67
2021/07/27 11:37:26;;;;;;;;;;;22.10;79.40;;;;;;5049043;28;1283;-67
2021/07/27 11:39:52;;;;;;;;;;;22.10;79.40;;;;;;5051344;28;1283;-67
2021/07/27 11:42:26;;;;;;;;;;;22.10;79.40;;;;;;5039180;28;1161;-67
2021/07/27 11:44:52;;;;;;;;;;;22.10;79.40;;;;;;5048543;28;1297;-67
2021/07/27 11:47:17;;;;;;;;;;;22.10;79.40;;;;;;5049152;28;1965;-67
2021/07/27 11:49:52;;;;;;;;;;;22.10;79.40;;;;;;5049554;28;1213;-67
2021/07/27 11:52:23;;;;;;;;;;;22.10;79.40;;;;;;5051724;28;1155;-68
2021/07/27 11:54:58;;;;;;;;;;;22.10;79.40;;;;;;5051566;28;1250;-68
2021/07/27 11:57:23;;;;;;;;;;;22.10;79.30;;;;;;5049001;28;1189;-68
2021/07/27 11:59:50;;;;;;;;;;;22.10;79.40;;;;;;5051274;28;1219;-67
2021/07/27 12:02:15;;;;;;;;;;;22.10;79.30;;;;;;5049034;28;1329;-67
2021/07/27 12:04:41;;;;;;;;;;;22.10;79.30;;;;;;5052680;28;1391;-68
2021/07/27 12:07:06;;;;;;;;;;;22.10;79.30;;;;;;5032613;28;1360;-68
2021/07/27 12:09:32;;;;;;;;;;;22.10;79.40;;;;;;5047793;28;1987;-67
2021/07/27 12:11:57;;;;;;;;;;;22.10;79.30;;;;;;5054300;28;1580;-67
2021/07/27 12:14:23;;;;;;;;;;;22.10;79.30;;;;;;5052462;28;1419;-67
2021/07/27 12:16:48;;;;;;;;;;;22.10;79.30;;;;;;5054964;28;1616;-67
2021/07/27 12:19:14;;;;;;;;;;;22.10;79.30;;;;;;5055007;28;1586;-68
2021/07/27 12:21:42;;;;;;;;;;;22.10;79.30;;;;;;5048422;28;1159;-67
2021/07/27 12:24:08;;;;;;;;;;;22.10;79.30;;;;;;5040148;28;1262;-67
2021/07/27 12:26:35;;;;;;;;;;;22.10;79.30;;;;;;5054250;28;1546;-68
2021/07/27 12:29:00;;;;;;;;;;;22.10;79.30;;;;;;5054532;28;1973;-67
2021/07/27 12:31:26;;;;;;;;;;;22.10;79.30;;;;;;5054152;28;1255;-68
2021/07/27 12:33:52;;;;;;;;;;;22.10;79.40;;;;;;5054396;28;1636;-68
2021/07/27 12:36:17;;;;;;;;;;;22.10;79.30;;;;;;5052452;28;1505;-68
2021/07/27 12:38:42;;;;;;;;;;;22.10;79.40;;;;;;5053814;28;1370;-68
2021/07/27 12:41:08;;;;;;;;;;;22.10;79.30;;;;;;5053840;28;1518;-67
2021/07/27 12:43:33;;;;;;;;;;;22.10;79.40;;;;;;5054292;28;1652;-67
2021/07/27 12:45:59;;;;;;;;;;;22.10;79.40;;;;;;5047505;28;1737;-68
2021/07/27 12:48:24;;;;;;;;;;;22.10;79.40;;;;;;5034278;28;1910;-68
2021/07/27 12:50:50;;;;;;;;;;;22.10;79.40;;;;;;5032597;28;1657;-67
2021/07/27 12:53:15;;;;;;;;;;;22.10;79.30;;;;;;5044794;28;1682;-68
2021/07/27 12:55:41;;;;;;;;;;;22.10;79.40;;;;;;5032701;28;1448;-67
2021/07/27 12:58:06;;;;;;;;;;;22.10;79.40;;;;;;5032521;28;1752;-67
2021/07/27 13:00:33;;;;;;;;;;;22.10;79.40;;;;;;5033934;28;1716;-68
2021/07/27 13:02:58;;;;;;;;;;;22.10;79.40;;;;;;5034128;28;1464;-67
2021/07/27 13:05:23;;;;;;;;;;;22.10;80.10;;;;;;5032870;28;1507;-67
2021/07/27 13:07:49;;;;;;;;;;;22.10;79.40;;;;;;5033094;28;1940;-68
2021/07/27 13:10:14;;;;;;;;;;;22.10;79.40;;;;;;5033486;28;1553;-68
2021/07/27 13:12:40;;;;;;;;;;;22.10;79.40;;;;;;5033446;28;1529;-67
2021/07/27 13:15:05;;;;;;;;;;;22.10;79.40;;;;;;5031260;28;1369;-68
2021/07/27 13:17:31;;;;;;;;;;;22.10;79.40;;;;;;5031526;28;1453;-68
2021/07/27 13:19:56;;;;;;;;;;;22.10;79.30;;;;;;5033113;28;1559;-67
2021/07/27 13:22:23;;;;;;;;;;;22.10;79.30;;;;;;5040330;28;1470;-68
2021/07/27 13:24:49;;;;;;;;;;;22.10;79.40;;;;;;5032720;28;1584;-67
2021/07/27 13:27:14;;;;;;;;;;;22.10;79.30;;;;;;5031774;28;1895;-68
2021/07/27 13:29:40;;;;;;;;;;;22.10;79.40;;;;;;5033495;28;1381;-67
2021/07/27 13:32:05;;;;;;;;;;;22.10;79.40;;;;;;5032856;28;1344;-67
2021/07/27 13:34:31;;;;;;;;;;;22.10;80.10;;;;;;5031058;28;1399;-67
2021/07/27 13:36:56;;;;;;;;;;;22.10;79.40;;;;;;5032643;28;1663;-67
2021/07/27 13:39:22;;;;;;;;;;;22.10;79.30;;;;;;5032949;28;1736;-68
2021/07/27 13:41:47;;;;;;;;;;;22.10;79.40;;;;;;5033165;28;1440;-67
2021/07/27 13:44:13;;;;;;;;;;;22.10;79.30;;;;;;5039834;28;1550;-67
2021/07/27 13:46:38;;;;;;;;;;;22.10;79.40;;;;;;5050650;28;1336;-67
2021/07/27 13:49:03;;;;;;;;;;;22.10;79.40;;;;;;5048801;28;1967;-68
2021/07/27 13:51:29;;;;;;;;;;;22.10;79.40;;;;;;5050390;28;1369;-66
2021/07/27 13:53:57;;;;;;;;;;;22.10;79.30;;;;;;5047922;28;1639;-67
2021/07/27 13:56:22;;;;;;;;;;;22.10;79.40;;;;;;5032553;28;1616;-68
2021/07/27 13:58:48;;;;;;;;;;;22.10;79.40;;;;;;5031769;28;1283;-67
2021/07/27 14:01:13;;;;;;;;;;;22.10;79.40;;;;;;5033073;28;1438;-68
2021/07/27 14:03:39;;;;;;;;;;;22.10;79.40;;;;;;5031960;28;1612;-68
2021/07/27 14:06:04;;;;;;;;;;;22.10;79.30;;;;;;5031443;28;1197;-68
2021/07/27 14:08:30;;;;;;;;;;;22.10;79.30;;;;;;5032634;28;1963;-67
2021/07/27 14:10:55;;;;;;;;;;;22.10;79.40;;;;;;5031338;28;1108;-68
2021/07/27 14:13:20;;;;;;;;;;;22.10;79.40;;;;;;5032636;28;1287;-68
2021/07/27 14:15:46;;;;;;;;;;;22.10;79.40;;;;;;5031888;28;1142;-68
2021/07/27 14:18:11;;;;;;;;;;;22.10;79.40;;;;;;5031697;28;1065;-68
2021/07/27 14:20:37;;;;;;;;;;;22.10;79.30;;;;;;5036810;28;1123;-67
2021/07/27 14:23:02;;;;;;;;;;;22.10;79.30;;;;;;5034322;28;1296;-68
2021/07/27 14:25:28;;;;;;;;;;;22.10;79.30;;;;;;5032018;28;1056;-68
2021/07/27 14:27:55;;;;;;;;;;;22.10;79.30;;;;;;5032435;28;1957;-68
2021/07/27 14:30:21;;;;;;;;;;;22.10;79.30;;;;;;5031254;28;1159;-68
2021/07/27 14:32:47;;;;;;;;;;;22.10;79.30;;;;;;5032383;28;1083;-68
2021/07/27 14:35:12;;;;;;;;;;;22.10;79.30;;;;;;5031137;28;1196;-67
2021/07/27 14:37:38;;;;;;;;;;;22.10;79.30;;;;;;5032576;28;1199;-68
2021/07/27 14:40:03;;;;;;;;;;;22.10;79.30;;;;;;5032565;28;1122;-68
2021/07/27 14:42:29;;;;;;;;;;;22.10;79.30;;;;;;5032196;28;1196;-68
2021/07/27 14:44:55;;;;;;;;;;;22.10;79.30;;;;;;5042252;28;1204;-67
2021/07/27 14:47:21;;;;;;;;;;;22.10;79.30;;;;;;5052281;28;1969;-68
2021/07/27 14:49:46;;;;;;;;;;;22.10;79.40;;;;;;5052114;28;1103;-68